TimeEDT,TemperatureF,Dew PointF,Humidity,Sea Level PressureIn,VisibilityMPH,Wind Direction,Wind SpeedMPH,Gust SpeedMPH,PrecipitationIn,Events,Conditions,WindDirDegrees,DateUTC
12:53 AM,82.0,75.9,82,30.01,10.0,WNW,5.8,-,N/A,,Clear,290,2013-07-27 04:53:00
1:53 AM,82.0,75.9,82,30.00,10.0,WNW,4.6,-,N/A,,Scattered Clouds,300,2013-07-27 05:53:00
2:53 AM,80.1,73.0,79,29.97,10.0,NNW,8.1,-,N/A,,Scattered Clouds,330,2013-07-27 06:53:00
3:53 AM,79.0,75.9,90,29.96,6.0,NW,5.8,-,0.00,Rain,Light Rain,320,2013-07-27 07:53:00
4:53 AM,80.1,75.0,85,29.96,10.0,NW,5.8,-,0.02,,Mostly Cloudy,310,2013-07-27 08:53:00
5:06 AM,80.6,75.2,84,29.96,10.0,NNW,4.6,-,N/A,,Mostly Cloudy,330,2013-07-27 09:06:00
5:53 AM,78.1,75.0,90,29.97,8.0,NNW,11.5,-,0.00,Rain,Light Rain,330,2013-07-27 09:53:00
6:05 AM,75.2,73.4,94,29.97,1.8,North,5.8,-,0.11,Rain,Heavy Rain,360,2013-07-27 10:05:00
6:14 AM,75.2,73.4,94,29.97,2.0,WNW,4.6,-,0.17,Rain,Heavy Rain,290,2013-07-27 10:14:00
6:21 AM,77.0,75.2,94,29.97,1.0,WNW,11.5,-,0.28,Rain,Heavy Rain,300,2013-07-27 10:21:00
6:38 AM,77.0,73.4,89,29.97,2.0,NW,5.8,-,0.51,Rain,Heavy Rain,320,2013-07-27 10:38:00
6:48 AM,77.0,73.4,89,29.97,5.0,Calm,Calm,-,0.53,Rain,Light Rain,0,2013-07-27 10:48:00
6:53 AM,77.0,73.0,88,29.99,6.0,Calm,Calm,-,0.53,Rain,Light Rain,0,2013-07-27 10:53:00
7:53 AM,75.9,75.0,97,30.00,7.0,Calm,Calm,-,0.01,,Scattered Clouds,0,2013-07-27 11:53:00
8:53 AM,77.0,75.9,96,30.00,7.0,Calm,Calm,-,N/A,,Clear,0,2013-07-27 12:53:00
9:53 AM,82.0,77.0,85,30.00,10.0,NW,3.5,-,N/A,,Clear,310,2013-07-27 13:53:00
10:53 AM,84.9,75.9,74,30.00,10.0,Calm,Calm,-,N/A,,Scattered Clouds,0,2013-07-27 14:53:00
11:53 AM,88.0,73.9,63,30.00,10.0,Variable,3.5,-,N/A,,Partly Cloudy,0,2013-07-27 15:53:00
12:53 PM,89.1,73.0,59,29.98,10.0,Variable,4.6,-,N/A,,Scattered Clouds,0,2013-07-27 16:53:00
1:53 PM,90.0,71.1,54,29.97,10.0,Variable,4.6,-,N/A,,Partly Cloudy,0,2013-07-27 17:53:00
2:53 PM,91.0,73.0,55,29.96,10.0,NW,10.4,-,N/A,,Partly Cloudy,310,2013-07-27 18:53:00
3:53 PM,90.0,72.0,55,29.94,10.0,WNW,11.5,-,N/A,,Partly Cloudy,290,2013-07-27 19:53:00
4:49 PM,91.4,75.2,59,29.94,10.0,West,12.7,-,N/A,Thunderstorm,Partly Cloudy,280,2013-07-27 20:49:00
4:53 PM,90.0,73.9,59,29.94,10.0,WNW,13.8,-,N/A,Thunderstorm,Partly Cloudy,290,2013-07-27 20:53:00
5:15 PM,89.6,73.4,59,29.93,10.0,West,12.7,-,N/A,,Clear,280,2013-07-27 21:15:00
5:27 PM,89.6,73.4,59,29.93,10.0,West,11.5,-,N/A,Thunderstorm,Clear,280,2013-07-27 21:27:00
5:42 PM,89.6,73.4,59,29.94,10.0,West,12.7,-,N/A,,Clear,270,2013-07-27 21:42:00
5:53 PM,89.1,73.0,59,29.94,10.0,WNW,13.8,-,N/A,,Clear,290,2013-07-27 21:53:00
6:14 PM,87.8,73.4,62,29.95,10.0,NW,8.1,-,N/A,Thunderstorm,Scattered Clouds,320,2013-07-27 22:14:00
6:29 PM,82.4,73.4,74,29.95,10.0,East,10.4,-,N/A,,Mostly Cloudy,80,2013-07-27 22:29:00
6:53 PM,81.0,73.0,77,29.95,10.0,East,4.6,-,N/A,,Mostly Cloudy,80,2013-07-27 22:53:00
7:53 PM,82.0,73.0,74,29.97,10.0,South,4.6,-,N/A,,Partly Cloudy,170,2013-07-27 23:53:00
8:53 PM,81.0,72.0,74,29.98,10.0,SSE,3.5,-,N/A,,Scattered Clouds,160,2013-07-28 00:53:00
9:53 PM,82.0,73.9,76,29.99,10.0,Calm,Calm,-,N/A,,Partly Cloudy,0,2013-07-28 01:53:00
10:53 PM,80.1,75.0,85,30.01,10.0,SE,3.5,-,N/A,,Partly Cloudy,130,2013-07-28 02:53:00
11:53 PM,80.1,75.9,87,30.00,10.0,Calm,Calm,-,N/A,,Clear,0,2013-07-28 03:53:00